Time;durP1;ratioP1;P1;durP2;ratioP2;P2;SDS_P1;SDS_P2;PMS_P1;PMS_P2;Temp;Humidity;BMP_temperature;BMP_pressure;BME280_temperature;BME280_humidity;BME280_pressure;Samples;Min_cycle;Max_cycle;Signal;HPM_P1;HPM_P2
2022/08/18 00:01:11;;;;;;;5.20;4.70;;;;;;;20.73;54.81;94660.34;5078427;28;20297;-88
2022/08/18 00:03:36;;;;;;;8.68;5.10;;;;;;;20.76;55.20;94667.06;5114770;27;20625;-86
2022/08/18 00:06:02;;;;;;;5.30;4.75;;;;;;;20.70;55.13;94654.66;5079540;27;20031;-88
2022/08/18 00:08:28;;;;;;;5.53;4.82;;;;;;;20.70;55.13;94670.47;5096059;27;20035;-88
2022/08/18 00:10:54;;;;;;;5.03;4.38;;;;;;;20.22;55.84;94647.34;5095991;27;20110;-86
2022/08/18 00:13:20;;;;;;;6.43;4.75;;;;;;;20.35;55.74;94670.38;5095562;27;20119;-89
2022/08/18 00:15:46;;;;;;;7.50;4.93;;;;;;;20.37;55.85;94665.72;5095733;27;20020;-86
2022/08/18 00:18:11;;;;;;;5.85;4.60;;;;;;;20.40;55.94;94665.34;5078871;27;20035;-88
2022/08/18 00:20:36;;;;;;;5.78;4.68;;;;;;;20.28;56.41;94662.44;5112974;27;20078;-88
2022/08/18 00:23:02;;;;;;;6.25;4.65;;;;;;;20.24;57.04;94661.16;5114526;27;20080;-88
2022/08/18 00:25:27;;;;;;;5.55;4.93;;;;;;;20.25;57.10;94669.88;5114653;27;20034;-88
2022/08/18 00:27:53;;;;;;;7.43;5.03;;;;;;;20.24;57.08;94670.91;5097719;27;20484;-88
2022/08/18 00:30:19;;;;;;;7.00;5.13;;;;;;;20.27;57.23;94670.50;5114808;27;20404;-88
2022/08/18 00:32:55;;;;;;;7.18;5.15;;;;;;;20.39;57.43;94668.97;5097386;27;20201;-88
2022/08/18 00:35:26;;;;;;;7.57;5.18;;;;;;;20.32;57.21;94670.75;5097562;27;20114;-88
2022/08/18 00:37:53;;;;;;;5.80;5.20;;;;;;;20.33;57.53;94669.75;5115140;27;20464;-89
2022/08/18 00:40:20;;;;;;;7.00;5.72;;;;;;;20.30;57.19;94657.75;5132783;27;20069;-87
2022/08/18 00:42:51;;;;;;;5.90;5.30;;;;;;;20.33;57.76;94669.75;5097005;27;20391;-88
2022/08/18 00:45:24;;;;;;;9.02;5.40;;;;;;;20.28;57.90;94669.50;5113989;27;20034;-88
2022/08/18 00:47:49;;;;;;;6.43;5.43;;;;;;;20.19;58.00;94673.28;5081578;27;20070;-88
2022/08/18 00:50:22;;;;;;;5.85;4.82;;;;;;;20.08;57.52;94667.50;5097254;27;20485;-86
2022/08/18 00:53:02;;;;;;;6.03;4.78;;;;;;;20.02;57.28;94664.81;5099004;27;20031;-87
2022/08/18 00:55:30;;;;;;;6.97;4.80;;;;;;;20.07;57.52;94686.16;5099313;27;20031;-88
2022/08/18 00:58:03;;;;;;;7.30;4.85;;;;;;;19.87;58.04;94672.78;5080010;27;20038;-88
2022/08/18 01:00:32;;;;;;;5.80;5.13;;;;;;;19.77;58.47;94696.00;5113669;28;20266;-87
2022/08/18 01:02:58;;;;;;;7.22;4.85;;;;;;;19.52;59.14;94688.38;5097356;27;20038;-87
2022/08/18 01:05:39;;;;;;;5.68;5.07;;;;;;;19.57;59.64;94696.56;5097141;27;20496;-88
2022/08/18 01:08:09;;;;;;;;;;;;;;;19.74;59.01;94693.72;5099009;28;20035;-88
2022/08/18 01:10:34;;;;;;;6.90;5.03;;;;;;;19.75;59.02;94692.72;5114385;28;19923;-88
2022/08/18 01:13:00;;;;;;;6.25;4.72;;;;;;;19.69;59.65;94688.19;5097117;28;20035;-87
2022/08/18 01:15:25;;;;;;;6.88;5.28;;;;;;;19.60;59.72;94687.47;5114144;28;20476;-87
2022/08/18 01:23:26;;;;;;;7.28;5.70;;;;;;;19.28;60.09;94678.16;5103209;28;20041;-88
2022/08/18 01:26:02;;;;;;;6.00;5.45;;;;;;;19.41;60.20;94692.31;5113610;28;20027;-88
2022/08/18 01:28:32;;;;;;;6.68;5.65;;;;;;;19.39;60.44;94693.50;5115472;28;20172;-87
2022/08/18 01:30:58;;;;;;;6.55;5.50;;;;;;;19.13;61.12;94684.25;5097127;28;20039;-89
2022/08/18 01:33:31;;;;;;;6.05;5.28;;;;;;;19.22;61.05;94678.91;5097031;28;20031;-88
2022/08/18 01:36:13;;;;;;;7.07;5.43;;;;;;;19.32;60.93;94669.72;5114559;28;20035;-88
2022/08/18 01:38:41;;;;;;;8.90;5.97;;;;;;;19.38;60.41;94674.25;5113984;28;20489;-87
2022/08/18 01:41:07;;;;;;;5.97;5.38;;;;;;;19.26;60.41;94661.75;5080202;28;20071;-89
2022/08/18 01:43:35;;;;;;;6.47;5.88;;;;;;;19.27;60.89;94684.44;5113795;28;20643;-88
2022/08/18 01:46:03;;;;;;;6.22;5.32;;;;;;;19.30;60.22;94658.53;5079835;28;20096;-88
2022/08/18 01:48:31;;;;;;;6.28;5.68;;;;;;;19.34;60.39;94666.91;5097189;28;20027;-88
2022/08/18 01:50:57;;;;;;;6.10;5.50;;;;;;;19.44;60.27;94675.31;5080347;28;20045;-88
2022/08/18 01:53:23;;;;;;;7.25;5.68;;;;;;;19.42;60.34;94661.53;5097058;28;20102;-88
2022/08/18 01:55:48;;;;;;;6.32;5.38;;;;;;;19.33;60.35;94652.09;5096797;28;20123;-88
2022/08/18 01:58:14;;;;;;;6.32;5.43;;;;;;;19.42;60.43;94661.53;5113759;28;20027;-88
2022/08/18 02:00:40;;;;;;;6.55;5.53;;;;;;;19.27;61.01;94658.09;5113475;28;20043;-88
2022/08/18 02:03:10;;;;;;;7.90;5.63;;;;;;;19.42;60.74;94659.72;5096805;28;20500;-88
2022/08/18 02:05:41;;;;;;;6.53;5.30;;;;;;;19.31;60.82;94665.47;5080220;28;20035;-88
2022/08/18 02:08:07;;;;;;;9.32;5.55;;;;;;;19.22;60.84;94645.47;5097087;28;20031;-88
2022/08/18 02:10:32;;;;;;;6.60;5.20;;;;;;;19.36;60.40;94663.09;5079894;28;20069;-88
2022/08/18 02:12:58;;;;;;;6.47;5.50;;;;;;;19.28;60.54;94651.81;5096224;28;20031;-88
2022/08/18 02:15:23;;;;;;;7.00;5.38;;;;;;;19.39;60.58;94669.81;5099882;27;20027;-88
2022/08/18 02:17:49;;;;;;;6.38;5.60;;;;;;;19.45;60.38;94674.34;5100080;27;20046;-88
2022/08/18 02:20:15;;;;;;;6.93;5.93;;;;;;;19.37;60.30;94658.63;5117259;27;20034;-88
2022/08/18 02:22:42;;;;;;;8.10;5.88;;;;;;;19.42;60.17;94679.97;5099911;27;20070;-89
2022/08/18 02:25:08;;;;;;;8.23;6.35;;;;;;;19.08;61.05;94670.81;5100029;27;20030;-88
2022/08/18 02:27:34;;;;;;;7.05;5.68;;;;;;;19.16;61.13;94668.09;5100121;27;21846;-88
2022/08/18 02:30:00;;;;;;;6.80;5.80;;;;;;;19.17;61.02;94676.84;5099916;27;20019;-88
2022/08/18 02:32:25;;;;;;;7.38;5.85;;;;;;;19.08;61.54;94678.72;5082719;27;20024;-88
2022/08/18 02:34:51;;;;;;;6.95;5.53;;;;;;;19.10;61.42;94673.28;5116834;27;20019;-88
2022/08/18 02:37:16;;;;;;;6.90;5.80;;;;;;;19.14;61.06;94667.47;5099961;27;20042;-87
2022/08/18 02:39:42;;;;;;;6.95;5.60;;;;;;;19.19;60.87;94667.75;5099509;27;20054;-88
2022/08/18 02:42:07;;;;;;;6.95;5.88;;;;;;;19.23;60.64;94670.00;5099932;27;20443;-88
2022/08/18 02:44:33;;;;;;;6.63;5.80;;;;;;;19.01;60.97;94651.50;5116747;27;20060;-88
2022/08/18 02:46:58;;;;;;;8.43;6.45;;;;;;;18.98;61.54;94665.03;5082810;27;20489;-85
2022/08/18 02:49:24;;;;;;;8.68;6.10;;;;;;;18.90;61.27;94651.97;5099546;27;20027;-88
2022/08/18 02:51:50;;;;;;;7.22;6.00;;;;;;;19.04;61.14;94672.19;5096468;28;20028;-88
2022/08/18 02:54:17;;;;;;;6.53;5.70;;;;;;;19.17;61.05;94671.56;5096350;28;20065;-88
2022/08/18 02:56:44;;;;;;;10.70;6.00;;;;;;;19.08;61.32;94676.09;5079396;28;20054;-87
2022/08/18 02:59:14;;;;;;;8.10;5.85;;;;;;;18.98;61.63;94676.38;5075428;28;20533;-88
2022/08/18 03:01:41;;;;;;;6.10;5.50;;;;;;;18.93;61.38;94670.03;5075594;28;20110;-88
2022/08/18 03:04:10;;;;;;;6.93;6.00;;;;;;;18.89;61.42;94666.94;5075874;28;20127;-88
2022/08/18 03:06:36;;;;;;;6.35;5.75;;;;;;;19.00;61.48;94673.56;5059532;28;20502;-88
2022/08/18 03:09:03;;;;;;;6.68;5.97;;;;;;;18.96;61.44;94673.09;5075754;28;20036;-88
2022/08/18 03:11:28;;;;;;;7.68;5.53;;;;;;;18.97;61.37;94684.44;5075375;28;20077;-87
2022/08/18 03:13:55;;;;;;;7.88;5.53;;;;;;;18.81;61.97;94679.38;5075695;28;20032;-88
2022/08/18 03:16:22;;;;;;;6.40;5.80;;;;;;;18.91;61.91;94682.53;5075516;28;20028;-88
2022/08/18 03:18:47;;;;;;;6.28;5.53;;;;;;;18.90;61.61;94662.50;5075677;28;20032;-87
2022/08/18 03:21:17;;;;;;;7.55;6.07;;;;;;;18.99;61.48;94682.44;5075188;28;20031;-88
2022/08/18 03:23:44;;;;;;;7.43;5.85;;;;;;;18.78;62.00;94677.09;5059136;28;20485;-88
2022/08/18 03:26:14;;;;;;;7.57;5.88;;;;;;;18.96;61.72;94688.88;5091687;28;20039;-87
2022/08/18 03:28:40;;;;;;;6.50;5.65;;;;;;;18.87;61.70;94689.19;5075776;28;20036;-86
2022/08/18 03:31:07;;;;;;;6.30;5.70;;;;;;;18.78;62.09;94696.34;5075112;28;20032;-87
2022/08/18 03:33:32;;;;;;;7.63;5.93;;;;;;;18.66;62.36;94680.13;5075250;28;20409;-87
2022/08/18 03:36:05;;;;;;;8.00;6.15;;;;;;;18.79;62.29;94705.84;5075043;28;20034;-86
2022/08/18 03:38:31;;;;;;;8.07;6.60;;;;;;;18.77;62.24;94694.69;5074793;28;20066;-88
2022/08/18 03:40:58;;;;;;;8.70;6.55;;;;;;;18.45;63.43;94690.53;5074775;28;20464;-88
2022/08/18 03:43:24;;;;;;;8.65;6.55;;;;;;;18.31;63.28;94674.53;5058359;28;20144;-88
2022/08/18 03:45:49;;;;;;;7.00;6.28;;;;;;;18.35;64.06;94708.38;5074809;28;20078;-88
2022/08/18 03:48:15;;;;;;;9.80;6.78;;;;;;;18.21;63.98;94695.00;5093091;28;20050;-88
2022/08/18 03:50:41;;;;;;;7.82;6.35;;;;;;;18.35;63.89;94706.56;5101358;28;20020;-86
2022/08/18 03:53:06;;;;;;;6.97;6.38;;;;;;;18.17;64.53;94712.13;5094917;28;20024;-88
2022/08/18 03:55:32;;;;;;;6.53;5.80;;;;;;;18.06;64.70;94710.72;5111853;28;20028;-88
2022/08/18 03:58:04;;;;;;;7.03;6.32;;;;;;;18.13;64.67;94710.84;5111654;28;20055;-87
2022/08/18 04:00:30;;;;;;;7.32;5.95;;;;;;;18.10;64.59;94713.81;5087723;28;20463;-86
2022/08/18 04:02:58;;;;;;;7.40;6.03;;;;;;;18.00;64.86;94718.50;5105630;27;20127;-87
2022/08/18 04:05:24;;;;;;;7.57;6.20;;;;;;;17.98;64.57;94702.09;5092205;28;20054;-88
2022/08/18 04:07:49;;;;;;;8.70;6.40;;;;;;;17.94;64.72;94712.13;5104719;27;20487;-89
2022/08/18 04:10:18;;;;;;;7.75;6.28;;;;;;;17.86;65.34;94713.00;5087639;28;20056;-89
2022/08/18 04:12:43;;;;;;;10.30;6.72;;;;;;;17.76;65.53;94699.22;5092179;28;20126;-89
2022/08/18 04:15:09;;;;;;;9.55;6.50;;;;;;;17.80;65.53;94705.81;5087665;28;20035;-89
2022/08/18 04:17:35;;;;;;;9.48;6.80;;;;;;;17.77;66.07;94719.25;5080119;28;20571;-88
2022/08/18 04:20:01;;;;;;;9.40;6.95;;;;;;;17.78;66.06;94723.56;5092823;27;20050;-88
2022/08/18 04:22:26;;;;;;;9.18;6.30;;;;;;;17.91;65.77;94716.91;5089521;28;20066;-89
2022/08/18 04:24:52;;;;;;;9.65;7.25;;;;;;;17.81;66.18;94715.31;5087676;28;20435;-90
2022/08/18 04:27:19;;;;;;;7.97;7.00;;;;;;;17.79;66.11;94714.69;5109830;27;20027;-90
2022/08/18 04:29:44;;;;;;;9.15;7.00;;;;;;;17.80;66.31;94712.88;5079717;28;20466;-89
2022/08/18 04:32:10;;;;;;;8.95;7.22;;;;;;;17.89;66.02;94717.09;5102702;28;20112;-87
2022/08/18 04:34:35;;;;;;;8.48;7.32;;;;;;;18.10;65.60;94726.97;5074982;28;20038;-90
2022/08/18 04:37:01;;;;;;;8.27;6.55;;;;;;;18.23;65.32;94723.75;5069897;28;20032;-89
2022/08/18 04:39:29;;;;;;;8.82;7.05;;;;;;;18.37;64.70;94730.06;5100906;28;20424;-90
2022/08/18 04:41:55;;;;;;;8.07;7.03;;;;;;;18.38;64.93;94731.69;5115355;27;20032;-90
2022/08/18 04:44:20;;;;;;;8.57;6.50;;;;;;;19.07;62.98;94731.56;5112264;27;20508;-89
2022/08/18 04:46:48;;;;;;;11.70;6.80;;;;;;;20.24;59.47;94707.81;5102426;28;20036;-86
2022/08/18 04:49:16;;;;;;;7.82;6.03;;;;;;;22.37;52.33;94722.19;5075147;28;20055;-87
2022/08/18 04:54:37;;;;;;;6.53;5.25;;;;;;;25.39;45.35;94723.94;5088744;28;20571;-89
2022/08/18 04:57:07;;;;;;;6.07;5.10;;;;;;;26.93;41.51;94731.50;5072683;28;20102;-89
2022/08/18 04:59:32;;;;;;;8.00;5.43;;;;;;;28.12;38.59;94724.22;5077739;28;20066;-89
2022/08/18 05:01:57;;;;;;;9.02;5.50;;;;;;;29.42;35.86;94729.56;5056155;28;20024;-89
2022/08/18 05:04:27;;;;;;;6.10;4.88;;;;;;;30.35;34.22;94705.56;5086594;28;20127;-89
2022/08/18 05:06:53;;;;;;;9.90;5.22;;;;;;;31.10;32.13;94711.88;5070401;28;20045;-89
2022/08/18 05:09:18;;;;;;;8.52;5.65;;;;;;;32.21;30.78;94731.53;5086488;28;20086;-88
2022/08/18 05:11:44;;;;;;;11.48;5.88;;;;;;;33.22;29.37;94740.00;5088623;28;20080;-85
2022/08/18 05:14:09;;;;;;;9.68;5.78;;;;;;;33.60;28.33;94744.00;5069236;28;20032;-89
2022/08/18 05:16:35;;;;;;;10.57;5.70;;;;;;;30.84;32.15;94748.38;5047352;28;20032;-83
2022/08/18 05:19:08;;;;;;;10.77;5.70;;;;;;;28.02;38.35;94740.81;5085047;28;20028;-89
2022/08/18 05:21:35;;;;;;;10.65;6.25;;;;;;;26.89;39.73;94749.00;5070910;28;20052;-88
2022/08/18 05:24:01;;;;;;;15.10;6.28;;;;;;;25.48;43.00;94731.63;5053921;28;20248;-88
2022/08/18 05:26:26;;;;;;;13.13;6.50;;;;;;;25.40;44.02;94754.00;5065760;28;20505;-88
2022/08/18 05:28:52;;;;;;;8.80;6.43;;;;;;;24.66;45.73;94751.16;5083986;28;20047;-89
2022/08/18 05:31:19;;;;;;;13.60;6.78;;;;;;;24.70;46.36;94751.53;5067813;28;20034;-87
2022/08/18 05:33:45;;;;;;;15.30;7.68;;;;;;;24.61;46.23;94740.34;5051442;28;20028;-87
2022/08/18 05:36:26;;;;;;;12.15;6.70;;;;;;;24.49;47.46;94750.84;5066835;28;20392;-88
2022/08/18 05:39:13;;;;;;;14.02;6.45;;;;;;;24.29;46.96;94748.31;5088759;28;20085;-88
2022/08/18 05:41:41;;;;;;;13.45;6.38;;;;;;;24.36;47.20;94744.78;5103903;28;20036;-88
2022/08/18 05:44:07;;;;;;;10.65;6.20;;;;;;;24.37;47.12;94757.03;5087735;28;20485;-88
2022/08/18 05:46:51;;;;;;;8.10;5.80;;;;;;;24.19;47.39;94749.78;5085560;28;20035;-88
2022/08/18 05:49:16;;;;;;;9.57;6.10;;;;;;;23.99;48.47;94756.00;5090912;28;20028;-89
2022/08/18 05:51:47;;;;;;;10.88;7.35;;;;;;;23.68;49.23;94748.78;5076658;28;20032;-87
2022/08/18 05:57:13;;;;;;;9.40;6.15;;;;;;;24.22;48.40;94762.63;5078977;28;20065;-88
2022/08/18 05:59:39;;;;;;;8.50;6.20;;;;;;;24.09;48.27;94745.75;5115634;27;20061;-89
2022/08/18 06:02:16;;;;;;;9.95;6.55;;;;;;;24.41;47.34;94759.06;5115883;27;20043;-88
2022/08/18 06:04:48;;;;;;;8.80;5.55;;;;;;;24.59;47.15;94758.34;5104372;28;20040;-89
2022/08/18 06:07:23;;;;;;;9.73;6.03;;;;;;;24.73;46.97;94761.72;5076492;28;20056;-88
2022/08/18 06:09:50;;;;;;;11.45;5.65;;;;;;;24.74;46.43;94740.25;5113482;27;20187;-87
2022/08/18 06:12:16;;;;;;;9.35;5.50;;;;;;;24.80;47.10;94759.81;5090548;28;20111;-85
2022/08/18 06:14:41;;;;;;;11.98;6.00;;;;;;;25.01;47.74;94755.16;5105558;27;20122;-86
2022/08/18 06:17:34;;;;;;;12.32;5.80;;;;;;;25.07;45.67;94741.00;5061811;28;20394;-87
2022/08/18 06:20:09;;;;;;;11.52;5.82;;;;;;;25.15;45.98;94754.03;5113819;28;20084;-89
2022/08/18 06:22:49;;;;;;;9.35;5.93;;;;;;;25.25;46.40;94758.84;5103829;28;20090;-85
2022/08/18 06:25:24;;;;;;;8.75;6.05;;;;;;;25.34;46.01;94752.22;5114141;28;20048;-88
2022/08/18 06:28:00;;;;;;;8.55;5.68;;;;;;;25.42;45.79;94758.06;5107030;28;20036;-88
2022/08/18 06:30:31;;;;;;;10.23;6.22;;;;;;;25.45;45.30;94751.47;5094222;28;20055;-87
2022/08/18 06:33:09;;;;;;;7.97;5.57;;;;;;;25.55;45.66;94745.66;5112202;28;20031;-88
2022/08/18 06:35:48;;;;;;;6.95;5.82;;;;;;;25.71;45.67;94742.38;5112914;28;20573;-87
2022/08/18 06:41:02;;;;;;;7.95;5.20;;;;;;;25.94;45.05;94746.28;5108340;27;20096;-89
2022/08/18 06:43:28;;;;;;;9.77;5.43;;;;;;;26.09;45.12;94759.97;5112552;28;20126;-89
2022/08/18 06:45:54;;;;;;;8.23;5.50;;;;;;;26.29;44.87;94749.06;5116759;27;20431;-85
2022/08/18 06:48:28;;;;;;;7.55;5.35;;;;;;;26.40;44.42;94750.16;5119233;27;20081;-88
2022/08/18 06:51:00;;;;;;;7.70;5.22;;;;;;;26.35;43.61;94710.88;5107335;28;20132;-88
2022/08/18 06:53:55;;;;;;;9.68;5.82;;;;;;;26.86;42.61;94748.66;5129746;27;20027;-88
2022/08/18 06:56:25;;;;;;;7.05;5.25;;;;;;;26.94;41.55;94730.50;5133946;27;20672;-86
2022/08/18 06:58:54;;;;;;;9.27;5.85;;;;;;;26.93;41.24;94731.50;5098062;27;20039;-86
2022/08/18 07:01:19;;;;;;;6.78;5.35;;;;;;;27.06;41.68;94722.50;5115956;27;20535;-85
2022/08/18 07:03:53;;;;;;;7.90;5.40;;;;;;;27.25;41.18;94728.56;5133058;27;20035;-85
2022/08/18 07:06:21;;;;;;;8.02;5.32;;;;;;;27.36;41.67;94732.25;5116286;27;20039;-85
2022/08/18 07:08:48;;;;;;;9.32;4.95;;;;;;;27.37;41.72;94733.88;5132840;27;20142;-86
2022/08/18 07:11:29;;;;;;;6.47;5.00;;;;;;;27.61;41.03;94729.31;5132843;27;20027;-84
2022/08/18 07:13:56;;;;;;;9.07;5.07;;;;;;;27.83;39.99;94721.50;5089227;28;20031;-89
2022/08/18 07:16:27;;;;;;;8.27;5.90;;;;;;;28.01;40.39;94718.66;5091638;28;20067;-87
2022/08/18 07:18:53;;;;;;;8.55;5.18;;;;;;;28.15;40.03;94721.88;5111156;28;20058;-88
2022/08/18 07:21:30;;;;;;;10.30;5.57;;;;;;;27.78;40.29;94708.84;5110836;28;20493;-86
2022/08/18 07:24:01;;;;;;;8.02;5.03;;;;;;;28.06;41.10;94710.75;5093399;28;20031;-88
2022/08/18 07:26:26;;;;;;;7.78;5.40;;;;;;;28.32;39.40;94711.22;5093455;28;20035;-87
2022/08/18 07:28:52;;;;;;;8.02;5.40;;;;;;;28.14;38.79;94711.41;5077274;28;20027;-88
2022/08/18 07:31:41;;;;;;;10.15;5.88;;;;;;;28.18;39.00;94705.38;5112069;28;20118;-88
2022/08/18 07:34:12;;;;;;;6.07;5.10;;;;;;;28.46;38.92;94712.56;5110930;28;20440;-88
2022/08/18 07:36:52;;;;;;;10.77;5.70;;;;;;;28.33;38.66;94709.34;5092715;28;20133;-88
2022/08/18 07:39:23;;;;;;;10.63;5.78;;;;;;;28.15;39.05;94705.03;5111628;28;20034;-88
2022/08/18 07:41:51;;;;;;;13.00;5.88;;;;;;;28.39;38.85;94714.56;5092849;28;20633;-88
2022/08/18 07:44:47;;;;;;;10.20;5.32;;;;;;;28.66;39.24;94709.44;5093462;28;20023;-88
2022/08/18 07:47:25;;;;;;;9.23;5.60;;;;;;;28.89;38.43;94715.66;5110101;28;20020;-87
2022/08/18 07:49:57;;;;;;;6.72;5.20;;;;;;;29.00;37.43;94697.91;5095807;28;20036;-89
2022/08/18 07:52:31;;;;;;;8.18;5.90;;;;;;;28.95;37.26;94662.06;5095610;28;20077;-88
2022/08/18 07:55:03;;;;;;;7.43;5.18;;;;;;;29.26;36.92;94689.25;5094492;28;20028;-88
2022/08/18 07:57:32;;;;;;;9.90;5.40;;;;;;;29.54;36.36;94708.88;5094325;28;20088;-88
2022/08/18 08:00:04;;;;;;;7.65;5.57;;;;;;;29.68;36.02;94712.03;5126325;27;20143;-88
2022/08/18 08:02:32;;;;;;;6.20;5.32;;;;;;;29.64;35.78;94709.03;5133041;27;20019;-87
2022/08/18 08:05:10;;;;;;;8.38;5.40;;;;;;;29.67;36.12;94707.72;5114694;27;20027;-88
2022/08/18 08:07:55;;;;;;;7.28;5.60;;;;;;;29.78;36.01;94707.63;5114563;27;20042;-88
2022/08/18 08:10:36;;;;;;;6.63;5.13;;;;;;;29.86;33.89;94701.00;5132306;27;20046;-87
2022/08/18 08:13:33;;;;;;;7.07;4.93;;;;;;;29.99;34.40;94705.16;5096726;27;20587;-88
2022/08/18 08:16:14;;;;;;;9.10;5.80;;;;;;;30.05;33.95;94704.16;5114386;27;20023;-88
2022/08/18 08:18:52;;;;;;;6.05;4.82;;;;;;;30.17;34.46;94702.16;5119533;27;20032;-88
2022/08/18 08:21:18;;;;;;;6.38;4.50;;;;;;;30.14;33.90;94670.50;5097009;27;20035;-88
2022/08/18 08:23:50;;;;;;;6.45;4.60;;;;;;;30.48;33.54;94702.50;5094217;27;20110;-86
2022/08/18 08:26:22;;;;;;;7.45;4.47;;;;;;;30.61;32.65;94702.06;5109280;28;20112;-93
2022/08/18 08:29:11;;;;;;;6.97;4.68;;;;;;;30.71;31.95;94702.16;5096003;27;20028;-90
2022/08/18 08:31:49;;;;;;;5.90;4.90;;;;;;;30.75;31.89;94701.63;5068081;27;20428;-91
2022/08/18 08:34:30;;;;;;;8.63;4.60;;;;;;;30.85;32.46;94707.91;5116642;27;20034;-92
2022/08/18 08:37:35;;;;;;;9.02;4.72;;;;;;;30.58;31.86;94667.72;5079669;28;20466;-92
2022/08/18 08:40:22;;;;;;;7.63;4.60;;;;;;;30.82;32.23;94707.63;5074284;27;20118;-91
2022/08/18 08:43:00;;;;;;;6.70;4.28;;;;;;;30.88;31.92;94683.28;5099734;27;20040;-92
2022/08/18 08:45:28;;;;;;;6.10;4.20;;;;;;;30.87;31.00;94678.16;5096917;27;20404;-92
2022/08/18 08:48:01;;;;;;;8.65;4.72;;;;;;;31.01;31.97;94692.75;5076109;28;20043;-91
2022/08/18 08:50:28;;;;;;;10.05;4.68;;;;;;;30.98;31.76;94653.06;5083684;27;20023;-92
2022/08/18 08:53:05;;;;;;;6.57;4.30;;;;;;;31.26;31.67;94696.66;5136351;27;20527;-92
2022/08/18 08:55:33;;;;;;;6.47;4.05;;;;;;;31.16;31.34;94671.38;5083429;27;20028;-91
2022/08/18 08:58:08;;;;;;;4.68;4.00;;;;;;;31.34;30.25;94691.63;5097156;27;20465;-91
2022/08/18 09:00:34;;;;;;;7.25;4.13;;;;;;;31.36;30.01;94699.44;5111940;27;20055;-91
2022/08/18 09:03:08;;;;;;;4.65;3.85;;;;;;;30.92;29.98;94697.81;5086805;27;20460;-91
2022/08/18 09:06:29;;;;;;;5.22;3.88;;;;;;;31.22;30.20;94696.38;5133696;27;20035;-92
2022/08/18 09:09:03;;;;;;;6.93;3.95;;;;;;;31.30;30.14;94697.75;5020349;28;20041;-86
2022/08/18 09:12:10;;;;;;;4.40;3.70;;;;;;;31.13;29.60;94660.38;5101814;28;20099;-89
2022/08/18 09:15:07;;;;;;;6.10;4.20;;;;;;;31.42;30.43;94684.16;5111144;28;20034;-89
2022/08/18 09:17:44;;;;;;;6.30;4.50;;;;;;;31.58;29.64;94678.63;5131854;28;20118;-89
2022/08/18 09:20:51;;;;;;;7.70;4.43;;;;;;;31.60;29.86;94681.84;5107235;28;20509;-89
2022/08/18 09:23:21;;;;;;;7.10;4.18;;;;;;;31.65;29.22;94677.56;5019081;28;20458;-83
2022/08/18 09:25:52;;;;;;;4.80;3.92;;;;;;;31.73;28.54;94671.69;5099413;27;20073;-86
2022/08/18 09:28:37;;;;;;;5.70;4.25;;;;;;;31.70;29.83;94667.66;5101412;27;20035;-84
2022/08/18 09:31:06;;;;;;;6.28;4.40;;;;;;;31.72;29.35;94670.09;5120895;27;20020;-89
2022/08/18 09:33:43;;;;;;;6.07;3.97;;;;;;;31.73;29.59;94666.31;5116030;27;20504;-89
2022/08/18 09:36:36;;;;;;;7.10;4.65;;;;;;;31.79;27.95;94659.91;5116379;27;20055;-88
2022/08/18 09:42:00;;;;;;;4.63;4.13;;;;;;;31.73;29.32;94653.72;5127590;27;20042;-91
2022/08/18 09:44:44;;;;;;;4.18;3.78;;;;;;;31.83;28.47;94652.94;5101028;28;20023;-90
2022/08/18 09:47:10;;;;;;;5.40;4.10;;;;;;;31.60;28.00;94620.13;5108586;27;20035;-89
2022/08/18 09:49:40;;;;;;;4.80;3.90;;;;;;;31.77;29.00;94660.16;5099186;27;20030;-89
2022/08/18 09:52:21;;;;;;;5.15;4.00;;;;;;;31.87;27.30;94654.00;5098468;27;20035;-89
2022/08/18 09:54:55;;;;;;;5.25;3.67;;;;;;;31.86;27.59;94655.09;5136614;27;20061;-90
2022/08/18 09:57:23;;;;;;;5.30;3.88;;;;;;;31.90;28.39;94650.00;5114922;27;20031;-89
2022/08/18 09:59:48;;;;;;;5.93;3.80;;;;;;;31.99;28.18;94645.78;5099986;27;20047;-89
2022/08/18 10:02:34;;;;;;;4.85;3.67;;;;;;;32.07;27.04;94647.09;5130993;27;20107;-89
2022/08/18 10:05:18;;;;;;;6.15;4.03;;;;;;;32.09;27.92;94635.03;5097596;27;20039;-89
2022/08/18 10:07:52;;;;;;;5.10;4.20;;;;;;;32.16;27.06;94634.78;5115025;27;20031;-89
2022/08/18 10:10:33;;;;;;;5.03;4.00;;;;;;;32.20;27.75;94627.78;5129558;27;20031;-89
2022/08/18 10:13:25;;;;;;;7.10;3.95;;;;;;;32.18;27.21;94638.00;5109897;27;20031;-88
2022/08/18 10:15:50;;;;;;;5.28;4.22;;;;;;;32.24;27.75;94627.00;5124038;27;20428;-88
2022/08/18 10:18:40;;;;;;;5.18;4.10;;;;;;;32.23;27.27;94621.88;5105277;28;20057;-89
2022/08/18 10:21:19;;;;;;;4.97;3.95;;;;;;;32.33;27.35;94632.66;5110412;27;20178;-89
2022/08/18 10:23:48;;;;;;;5.07;3.87;;;;;;;32.35;27.45;94624.34;5093952;28;20043;-89
2022/08/18 10:26:37;;;;;;;5.88;4.30;;;;;;;32.33;27.21;94624.59;5109477;27;20387;-89
2022/08/18 10:29:05;;;;;;;11.40;4.43;;;;;;;32.26;26.40;94621.34;5117224;27;20043;-87
2022/08/18 10:31:49;;;;;;;4.80;4.00;;;;;;;32.04;26.75;94621.63;5115819;27;20027;-86
2022/08/18 10:34:20;;;;;;;4.88;3.92;;;;;;;32.08;27.65;94616.50;5098449;28;20382;-87
2022/08/18 10:36:55;;;;;;;5.72;4.10;;;;;;;32.24;27.85;94615.47;5124426;27;20540;-87
2022/08/18 10:39:29;;;;;;;5.47;4.25;;;;;;;32.16;27.61;94595.28;5115377;27;20107;-87
2022/08/18 10:42:24;;;;;;;5.47;4.10;;;;;;;32.15;27.23;94579.44;5098015;27;20043;-81
2022/08/18 10:44:52;;;;;;;7.83;4.10;;;;;;;32.34;26.60;94607.38;5100333;27;20039;-83
2022/08/18 10:47:28;;;;;;;5.60;3.80;;;;;;;32.38;26.66;94603.09;5116260;27;20148;-82
2022/08/18 10:49:53;;;;;;;6.80;3.75;;;;;;;32.45;25.88;94611.69;5096136;27;20039;-90
2022/08/18 10:52:46;;;;;;;6.30;3.97;;;;;;;32.48;25.49;94603.13;5076085;27;20538;-92
2022/08/18 10:55:20;;;;;;;4.43;3.78;;;;;;;32.57;24.81;94605.25;5094719;27;20067;-91
2022/08/18 10:58:14;;;;;;;4.43;4.03;;;;;;;32.64;24.88;94603.91;5111973;27;20079;-89
2022/08/18 11:01:02;;;;;;;6.03;3.92;;;;;;;32.50;24.89;94597.47;5134987;27;20105;-90
2022/08/18 11:03:49;;;;;;;8.32;5.88;;;;;;;32.51;25.70;94588.31;5082889;27;20028;-91
2022/08/18 11:06:17;;;;;;;5.57;4.20;;;;;;;32.44;27.18;94582.41;5104838;27;20080;-91
2022/08/18 11:08:45;;;;;;;7.13;3.95;;;;;;;32.32;25.96;94590.75;5081377;27;20015;-92
2022/08/18 11:11:11;;;;;;;6.53;4.35;;;;;;;32.08;25.40;94558.22;5071039;27;20038;-85
2022/08/18 11:14:17;;;;;;;5.35;4.22;;;;;;;32.26;25.42;94581.03;5109504;27;20027;-86
2022/08/18 11:16:59;;;;;;;4.93;4.22;;;;;;;32.15;26.80;94582.13;5108603;27;20099;-87
2022/08/18 11:19:25;;;;;;;5.25;4.40;;;;;;;31.90;27.02;94548.78;5110641;27;20054;-87
2022/08/18 11:21:51;;;;;;;6.05;4.07;;;;;;;32.01;26.55;94563.88;5089798;27;20036;-89
2022/08/18 11:24:25;;;;;;;8.48;4.13;;;;;;;32.18;27.51;94587.78;5094978;27;20102;-94
2022/08/18 11:26:50;;;;;;;6.43;3.85;;;;;;;32.27;26.98;94586.16;5094079;27;20043;-87
2022/08/18 11:29:22;;;;;;;6.35;4.25;;;;;;;32.09;26.66;94542.91;5112459;27;20035;-88
2022/08/18 11:31:49;;;;;;;4.72;4.05;;;;;;;32.24;26.50;94546.41;5074467;27;20417;-88
2022/08/18 11:34:17;;;;;;;6.20;4.00;;;;;;;32.43;25.54;94564.66;5079845;27;20054;-89
2022/08/18 11:36:43;;;;;;;4.53;4.00;;;;;;;32.51;26.21;94563.34;5072415;27;20103;-89
2022/08/18 11:39:09;;;;;;;6.28;4.13;;;;;;;32.26;26.54;94527.31;5116731;27;20547;-87
2022/08/18 11:41:40;;;;;;;6.15;4.05;;;;;;;32.65;26.18;94569.78;5090361;27;20095;-87
2022/08/18 11:44:06;;;;;;;6.90;4.50;;;;;;;32.65;27.13;94556.31;5104395;27;20039;-89
2022/08/18 11:46:37;;;;;;;4.25;3.83;;;;;;;32.87;26.53;94567.56;5075608;28;20042;-88
2022/08/18 11:49:28;;;;;;;5.95;4.35;;;;;;;32.95;25.47;94571.59;5095362;28;20028;-87
2022/08/18 11:51:59;;;;;;;6.03;4.45;;;;;;;33.00;25.55;94562.75;5098850;27;20035;-87
2022/08/18 11:54:40;;;;;;;6.57;4.15;;;;;;;33.02;25.09;94561.41;5081245;28;20454;-88
2022/08/18 11:57:30;;;;;;;4.95;3.90;;;;;;;32.99;24.54;94555.72;5093955;27;20384;-88
2022/08/18 11:59:55;;;;;;;5.00;4.45;;;;;;;32.57;24.26;94519.25;5103198;28;20059;-88
2022/08/18 12:02:24;;;;;;;5.25;4.70;;;;;;;32.53;25.48;94510.13;5094891;27;20432;-88
2022/08/18 12:04:54;;;;;;;7.47;4.53;;;;;;;32.55;24.99;94511.47;5079080;27;20035;-87
2022/08/18 12:07:50;;;;;;;6.10;5.50;;;;;;;32.68;26.30;94518.97;5080837;27;20071;-88
2022/08/18 12:10:21;;;;;;;4.55;3.92;;;;;;;32.83;25.25;94534.25;5063952;28;20054;-88